createdAt,value
2019-05-05T00:04:16.487Z,82.36
2019-05-05T00:09:21.876Z,83.06
2019-05-05T00:14:57.357Z,82.43
2019-05-05T00:20:05.138Z,82.80
2019-05-05T00:25:11.500Z,83.08
2019-05-05T00:30:17.503Z,82.80
2019-05-05T00:35:22.775Z,83.72
2019-05-05T00:40:28.436Z,84.02
2019-05-05T00:45:35.073Z,84.26
2019-05-05T00:50:41.805Z,84.40
2019-05-05T00:55:47.199Z,84.58
2019-05-05T01:01:06.804Z,85.00
2019-05-05T01:06:21.170Z,84.94
2019-05-05T01:11:26.760Z,85.36
2019-05-05T01:16:32.459Z,85.24
2019-05-05T01:21:40.297Z,85.07
2019-05-05T01:26:48.224Z,85.25
2019-05-05T01:31:56.236Z,85.45
2019-05-05T01:37:08.175Z,85.50
2019-05-05T01:42:18.486Z,85.50
2019-05-05T01:47:25.521Z,85.06
2019-05-05T01:52:34.460Z,85.02
2019-05-05T01:57:44.956Z,85.00
2019-05-05T02:02:50.729Z,85.01
2019-05-05T02:07:56.992Z,84.44
2019-05-05T02:13:04.638Z,84.71
2019-05-05T02:18:10.654Z,84.67
2019-05-05T02:23:17.246Z,84.11
2019-05-05T02:28:24.166Z,83.88
2019-05-05T02:33:29.519Z,83.50
2019-05-05T02:38:35.681Z,83.96
2019-05-05T02:43:44.800Z,84.50
2019-05-05T02:48:50.860Z,83.66
2019-05-05T02:53:58.934Z,83.70
2019-05-05T02:59:08.081Z,83.39
2019-05-05T03:04:14.292Z,83.54
2019-05-05T03:09:21.691Z,83.20
2019-05-05T03:14:29.728Z,82.96
2019-05-05T03:19:35.211Z,82.82
2019-05-05T03:24:41.058Z,82.58
2019-05-05T03:29:47.155Z,82.74
2019-05-05T03:34:53.724Z,82.59
2019-05-05T03:40:06.727Z,83.10
2019-05-05T03:45:26.303Z,83.87
2019-05-05T03:50:33.988Z,83.63
2019-05-05T03:55:39.140Z,83.97
2019-05-05T04:01:20.598Z,83.74
2019-05-05T04:06:38.941Z,83.68
2019-05-05T04:11:45.531Z,83.66
2019-05-05T04:17:19.112Z,83.46
2019-05-05T04:22:24.447Z,82.73
2019-05-05T04:27:29.722Z,82.74
2019-05-05T04:32:35.217Z,82.65
2019-05-05T04:37:40.528Z,82.12
2019-05-05T04:42:45.969Z,82.53
2019-05-05T04:47:55.450Z,83.63
2019-05-05T04:53:02.074Z,83.66
2019-05-05T04:58:07.534Z,82.74
2019-05-05T05:03:36.750Z,82.61
2019-05-05T05:08:44.187Z,81.55
2019-05-05T05:13:49.617Z,81.99
2019-05-05T05:18:55.957Z,81.92
2019-05-05T05:24:03.867Z,80.64
2019-05-05T05:29:09.328Z,80.02
2019-05-05T05:34:14.978Z,80.15
2019-05-05T05:39:48.607Z,80.71
2019-05-05T05:45:19.211Z,80.67
2019-05-05T05:50:44.430Z,79.87
2019-05-05T05:55:49.759Z,80.11
2019-05-05T06:00:56.826Z,79.30
2019-05-05T06:06:02.154Z,79.10
2019-05-05T06:11:07.994Z,79.27
2019-05-05T06:16:14.569Z,78.76
2019-05-05T06:21:20.041Z,78.67
2019-05-05T06:26:25.457Z,79.03
2019-05-05T06:31:30.678Z,78.82
2019-05-05T06:36:36.281Z,78.60
2019-05-05T06:42:05.937Z,77.98
2019-05-05T06:47:23.705Z,78.19
2019-05-05T06:52:41.990Z,77.70
2019-05-05T06:57:36.743Z,78.27
2019-05-05T07:02:44.478Z,78.81
2019-05-05T07:07:49.955Z,78.05
2019-05-05T07:12:56.344Z,77.71
2019-05-05T07:18:03.574Z,76.71
2019-05-05T07:23:08.793Z,76.36
2019-05-05T07:28:14.832Z,76.26
2019-05-05T07:33:20.542Z,76.92
2019-05-05T07:38:26.362Z,77.18
2019-05-05T07:43:31.647Z,73.61
2019-05-05T07:48:37.120Z,74.48
2019-05-05T07:53:44.239Z,73.60
2019-05-05T07:58:49.495Z,73.86
2019-05-05T08:03:54.836Z,73.02
2019-05-05T08:09:00.207Z,73.63
2019-05-05T08:14:05.618Z,73.47
2019-05-05T08:19:45.279Z,73.50
2019-05-05T08:25:03.893Z,73.07
2019-05-05T08:30:24.296Z,72.87
2019-05-05T08:35:29.108Z,71.66
2019-05-05T08:40:34.757Z,71.56
2019-05-05T08:45:40.119Z,71.94
2019-05-05T08:50:45.909Z,71.22
2019-05-05T08:55:51.262Z,71.27
2019-05-05T09:00:56.643Z,70.93
2019-05-05T09:06:01.935Z,67.48
2019-05-05T09:11:07.468Z,67.04
2019-05-05T09:16:14.475Z,65.56
2019-05-05T09:21:19.998Z,64.45
2019-05-05T09:26:47.459Z,65.10
2019-05-05T09:31:54.061Z,65.77
2019-05-05T09:37:03.659Z,64.42
2019-05-05T09:42:09.337Z,62.04
2019-05-05T09:47:16.142Z,62.20
2019-05-05T09:52:21.567Z,61.58
2019-05-05T09:57:27.285Z,61.19
2019-05-05T10:02:34.513Z,59.75
2019-05-05T10:07:40.231Z,58.96
2019-05-05T10:12:45.596Z,62.69
2019-05-05T10:17:51.002Z,62.39
2019-05-05T10:22:56.481Z,62.00
2019-05-05T10:28:04.016Z,62.28
2019-05-05T10:33:08.781Z,58.89
2019-05-05T10:38:14.518Z,57.48
2019-05-05T10:43:19.819Z,55.45
2019-05-05T10:48:25.169Z,57.70
2019-05-05T10:53:30.398Z,57.39
2019-05-05T10:58:36.428Z,57.75
2019-05-05T11:03:44.500Z,59.28
2019-05-05T11:08:49.488Z,61.76
2019-05-05T11:13:54.934Z,60.04
2019-05-05T11:19:00.732Z,61.10
2019-05-05T11:24:06.111Z,59.40
2019-05-05T11:29:13.059Z,58.34
2019-05-05T11:34:26.717Z,57.39
2019-05-05T11:39:34.029Z,55.40
2019-05-05T11:44:39.495Z,52.81
2019-05-05T11:49:44.802Z,49.57
2019-05-05T11:54:50.288Z,50.12
2019-05-05T11:59:55.718Z,47.55
2019-05-05T12:05:01.129Z,48.38
2019-05-05T12:10:08.543Z,50.12
2019-05-05T12:15:13.910Z,47.98
2019-05-05T12:20:24.113Z,44.07
2019-05-05T12:25:57.641Z,46.37
2019-05-05T12:31:05.402Z,46.56
2019-05-05T12:36:11.064Z,49.12
2019-05-05T12:41:16.434Z,45.50
2019-05-05T12:46:59.318Z,47.88
2019-05-05T12:52:04.719Z,49.82
2019-05-05T12:57:10.969Z,54.57
2019-05-05T13:02:16.350Z,60.91
2019-05-05T13:07:23.809Z,64.59
2019-05-05T13:12:29.103Z,64.69
2019-05-05T13:17:34.445Z,64.79
2019-05-05T13:23:00.592Z,62.79
2019-05-05T13:28:06.365Z,61.40
2019-05-05T13:33:14.028Z,57.88
2019-05-05T13:38:18.848Z,50.09
2019-05-05T13:43:24.119Z,42.19
2019-05-05T13:48:29.354Z,43.96
2019-05-05T13:53:34.639Z,42.29
2019-05-05T13:58:40.069Z,38.52
2019-05-05T14:03:47.011Z,35.85
2019-05-05T14:08:54.122Z,33.73
2019-05-05T14:13:59.589Z,32.47
2019-05-05T14:19:04.870Z,30.67
2019-05-05T14:24:23.223Z,29.79
2019-05-05T14:29:46.731Z,28.62
2019-05-05T14:35:10.242Z,28.19
2019-05-05T14:40:16.142Z,28.86
2019-05-05T14:45:23.530Z,27.62
2019-05-05T14:50:28.883Z,32.46
2019-05-05T14:55:34.120Z,28.18
2019-05-05T15:00:39.578Z,26.71
2019-05-05T15:06:15.390Z,26.12
2019-05-05T15:11:37.881Z,24.85
2019-05-05T15:16:44.125Z,27.22
2019-05-05T15:21:49.374Z,36.32
2019-05-05T15:26:55.275Z,41.10
2019-05-05T15:32:01.001Z,46.18
2019-05-05T15:37:06.585Z,46.27
2019-05-05T15:42:11.809Z,46.96
2019-05-05T15:47:18.018Z,49.17
2019-05-05T15:52:24.331Z,51.01
2019-05-05T15:57:30.042Z,51.78
2019-05-05T16:02:36.176Z,51.11
2019-05-05T16:07:41.474Z,51.34
2019-05-05T16:12:47.139Z,52.38
2019-05-05T16:18:17.091Z,51.29
2019-05-05T16:23:26.471Z,49.76
2019-05-05T16:28:31.690Z,50.08
2019-05-05T16:33:36.914Z,51.29
2019-05-05T16:38:43.588Z,50.91
2019-05-05T16:43:50.008Z,51.50
2019-05-05T16:48:55.350Z,51.53
2019-05-05T16:54:04.710Z,51.60
2019-05-05T16:59:09.954Z,51.73
2019-05-05T17:04:15.294Z,52.25
2019-05-05T17:09:20.744Z,52.79
2019-05-05T17:14:33.996Z,52.51
2019-05-05T17:19:51.510Z,52.95
2019-05-05T17:24:58.664Z,52.29
2019-05-05T17:30:05.029Z,51.35
2019-05-05T17:35:11.566Z,51.54
2019-05-05T17:40:35.914Z,53.32
2019-05-05T17:46:00.754Z,59.53
2019-05-05T17:51:19.929Z,54.13
2019-05-05T17:56:25.304Z,57.80
2019-05-05T18:01:31.075Z,58.33
2019-05-05T18:06:44.803Z,59.27
2019-05-05T18:12:04.349Z,61.33
2019-05-05T18:17:10.012Z,59.19
2019-05-05T18:22:15.355Z,62.17
2019-05-05T18:27:21.016Z,62.62
2019-05-05T18:32:26.360Z,61.41
2019-05-05T18:37:31.671Z,62.44
2019-05-05T18:42:37.427Z,61.82
2019-05-05T18:47:43.545Z,63.22
2019-05-05T18:52:49.819Z,63.72
2019-05-05T18:57:56.534Z,63.39
2019-05-05T19:03:17.681Z,62.52
2019-05-05T19:08:25.485Z,63.93
2019-05-05T19:13:31.172Z,63.34
2019-05-05T19:18:36.973Z,64.16
2019-05-05T19:23:42.264Z,64.50
2019-05-05T19:28:50.257Z,65.14
2019-05-05T19:33:55.880Z,65.24
2019-05-05T19:39:04.087Z,65.66
2019-05-05T19:44:11.545Z,64.06
2019-05-05T19:49:17.771Z,64.59
2019-05-05T19:54:23.318Z,64.85
2019-05-05T19:59:30.212Z,65.14
2019-05-05T20:04:35.895Z,66.96
2019-05-05T20:09:43.653Z,67.18
2019-05-05T20:14:49.120Z,67.30
2019-05-05T20:19:54.769Z,67.54
2019-05-05T20:25:00.377Z,67.37
2019-05-05T20:30:07.015Z,67.50
2019-05-05T20:35:29.464Z,66.84
2019-05-05T20:40:37.024Z,66.97
2019-05-05T20:45:44.271Z,67.70
2019-05-05T20:50:49.375Z,68.50
2019-05-05T20:55:54.816Z,69.59
2019-05-05T21:01:01.330Z,69.32
2019-05-05T21:06:06.772Z,69.49
2019-05-05T21:11:14.116Z,69.97
2019-05-05T21:16:19.397Z,70.70
2019-05-05T21:21:27.353Z,70.57
2019-05-05T21:26:50.566Z,70.99
2019-05-05T21:31:55.809Z,71.44
2019-05-05T21:37:01.463Z,71.91
2019-05-05T21:42:07.258Z,72.54
2019-05-05T21:47:14.694Z,72.91
2019-05-05T21:52:38.840Z,72.65
2019-05-05T21:58:25.167Z,72.67
2019-05-05T22:03:34.830Z,73.35
2019-05-05T22:08:40.799Z,73.56
2019-05-05T22:13:46.117Z,73.48
2019-05-05T22:18:54.044Z,73.66
2019-05-05T22:24:17.870Z,72.61
2019-05-05T22:29:24.848Z,72.01
2019-05-05T22:34:30.833Z,72.51
2019-05-05T22:39:36.162Z,72.26
2019-05-05T22:44:41.713Z,72.78
2019-05-05T22:49:47.070Z,72.33
2019-05-05T22:54:52.305Z,71.63
2019-05-05T22:59:57.694Z,71.97
2019-05-05T23:05:09.657Z,71.81
2019-05-05T23:10:15.086Z,71.34
2019-05-05T23:15:21.050Z,71.59
2019-05-05T23:20:50.542Z,71.28
2019-05-05T23:25:56.836Z,71.59
2019-05-05T23:31:02.129Z,71.86
2019-05-05T23:36:09.282Z,72.14
2019-05-05T23:41:14.750Z,72.14
2019-05-05T23:46:20.116Z,72.65
2019-05-05T23:51:25.554Z,72.46
2019-05-05T23:56:30.817Z,72.86
